Time;durP1;ratioP1;P1;durP2;ratioP2;P2;SDS_P1;SDS_P2;PMS_P1;PMS_P2;Temp;Humidity;BMP_temperature;BMP_pressure;BME280_temperature;BME280_humidity;BME280_pressure;Samples;Min_cycle;Max_cycle;Signal;HPM_P1;HPM_P2
2021/01/12 00:01:44;;;;;;;12.70;9.57;;;7.60;64.30;;;;;;5073481;28;20546;-77
2021/01/12 00:04:10;;;;;;;15.13;9.98;;;7.60;64.10;;;;;;5073544;28;20036;-75
2021/01/12 00:06:37;;;;;;;13.80;9.82;;;7.50;64.40;;;;;;5074371;28;20024;-74
2021/01/12 00:09:03;;;;;;;15.25;10.38;;;7.50;64.50;;;;;;5073004;28;20500;-71
2021/01/12 00:11:29;;;;;;;13.80;9.57;;;7.50;64.50;;;;;;5072998;28;20115;-76
2021/01/12 00:13:55;;;;;;;14.75;10.50;;;7.50;64.60;;;;;;5073058;28;20602;-76
2021/01/12 00:16:21;;;;;;;14.55;10.43;;;7.40;64.40;;;;;;5073372;28;20017;-71
2021/01/12 00:18:47;;;;;;;15.85;9.90;;;7.30;64.80;;;;;;5072942;28;20024;-71
2021/01/12 00:21:13;;;;;;;13.90;9.77;;;7.30;65.00;;;;;;5074545;28;20032;-71
2021/01/12 00:23:39;;;;;;;13.52;10.10;;;7.20;64.90;;;;;;5076800;28;20017;-73
2021/01/12 00:26:06;;;;;;;13.52;10.05;;;7.10;66.10;;;;;;5077104;28;20016;-76
2021/01/12 00:28:36;;;;;;;15.85;10.90;;;7.10;65.20;;;;;;5076633;28;20042;-76
2021/01/12 00:31:05;;;;;;;13.88;10.65;;;7.00;66.00;;;;;;5076843;28;20020;-71
2021/01/12 00:33:32;;;;;;;13.55;9.90;;;7.00;66.20;;;;;;5076784;28;20025;-71
2021/01/12 00:36:03;;;;;;;13.63;10.65;;;6.90;66.30;;;;;;5075127;28;20436;-76
2021/01/12 00:38:29;;;;;;;14.93;10.38;;;6.90;66.10;;;;;;5076371;28;20032;-75
2021/01/12 00:40:55;;;;;;;14.73;10.50;;;7.00;66.30;;;;;;5076427;28;20377;-72
2021/01/12 00:43:23;;;;;;;15.20;10.43;;;6.90;66.00;;;;;;5076920;28;20107;-73
2021/01/12 00:45:48;;;;;;;14.95;10.48;;;7.00;66.60;;;;;;5076678;28;20032;-74
2021/01/12 00:48:14;;;;;;;14.90;10.05;;;7.10;66.40;;;;;;5076621;28;20116;-71
2021/01/12 00:50:40;;;;;;;12.90;10.25;;;7.10;65.80;;;;;;5076644;28;20134;-76
2021/01/12 00:53:05;;;;;;;14.40;10.40;;;7.10;66.00;;;;;;5076437;28;20082;-76
2021/01/12 00:55:31;;;;;;;15.07;11.00;;;7.20;66.30;;;;;;5077567;28;20029;-72
2021/01/12 00:57:56;;;;;;;14.80;10.65;;;7.20;66.00;;;;;;5079592;28;20025;-73
2021/01/12 01:00:22;;;;;;;13.82;10.85;;;7.20;66.60;;;;;;5079837;28;20029;-68
2021/01/12 01:02:48;;;;;;;16.58;10.75;;;7.30;66.10;;;;;;5076482;28;20446;-69
2021/01/12 01:05:14;;;;;;;16.42;11.65;;;7.40;66.20;;;;;;5076181;28;20032;-70
2021/01/12 01:07:39;;;;;;;15.10;11.38;;;7.30;65.90;;;;;;5076908;28;20205;-67
2021/01/12 01:10:05;;;;;;;14.90;11.20;;;7.20;66.40;;;;;;5077038;28;20029;-69
2021/01/12 01:12:31;;;;;;;15.77;10.93;;;7.30;66.50;;;;;;5075650;28;20163;-70
2021/01/12 01:14:57;;;;;;;14.25;10.98;;;7.40;66.20;;;;;;5075875;28;20038;-70
2021/01/12 01:17:22;;;;;;;17.85;11.32;;;7.50;66.00;;;;;;5075832;28;20103;-68
2021/01/12 01:19:48;;;;;;;15.05;10.93;;;7.50;66.20;;;;;;5075900;28;20078;-70
2021/01/12 01:22:14;;;;;;;14.18;10.32;;;7.50;65.90;;;;;;5075776;28;20493;-69
2021/01/12 01:24:39;;;;;;;14.10;10.70;;;7.40;65.80;;;;;;5075523;28;20107;-74
2021/01/12 01:27:05;;;;;;;13.02;10.25;;;7.30;65.80;;;;;;5075527;28;20476;-68
2021/01/12 01:29:31;;;;;;;15.90;10.60;;;7.40;66.30;;;;;;5075681;28;20036;-69
2021/01/12 01:31:56;;;;;;;12.75;10.15;;;7.40;66.20;;;;;;5075225;28;20131;-69
2021/01/12 01:34:22;;;;;;;14.88;10.70;;;7.30;65.90;;;;;;5075234;28;20039;-70
2021/01/12 01:36:48;;;;;;;14.68;10.93;;;7.20;66.30;;;;;;5075530;28;20036;-70
2021/01/12 01:39:13;;;;;;;14.52;10.38;;;7.10;66.70;;;;;;5075521;28;20029;-68
2021/01/12 01:41:39;;;;;;;13.88;10.50;;;7.10;67.00;;;;;;5074196;28;20394;-68
2021/01/12 01:44:09;;;;;;;13.70;9.90;;;7.10;66.90;;;;;;5075533;28;20142;-73
2021/01/12 01:46:35;;;;;;;15.85;9.98;;;7.10;66.90;;;;;;5075409;28;20033;-68
2021/01/12 01:49:00;;;;;;;13.50;10.18;;;7.10;66.90;;;;;;5075121;28;20036;-68
2021/01/12 01:51:27;;;;;;;12.43;9.55;;;7.20;66.90;;;;;;5074995;28;20025;-67
2021/01/12 01:53:53;;;;;;;13.00;9.98;;;7.30;66.90;;;;;;5075116;28;20078;-67
2021/01/12 01:56:20;;;;;;;13.95;9.98;;;7.30;66.50;;;;;;5075151;28;20066;-68
2021/01/12 01:58:47;;;;;;;13.45;9.77;;;7.30;66.30;;;;;;5075295;28;20041;-71
2021/01/12 02:01:13;;;;;;;13.57;10.43;;;7.30;66.50;;;;;;5075101;28;20021;-72
2021/01/12 02:03:45;;;;;;;14.20;10.25;;;7.40;66.40;;;;;;5075059;28;20028;-73
2021/01/12 02:06:25;;;;;;;14.35;10.32;;;7.40;66.40;;;;;;5074841;28;20051;-69
2021/01/12 02:09:01;;;;;;;13.68;10.27;;;7.30;66.10;;;;;;5075129;28;20033;-73
2021/01/12 02:11:33;;;;;;;14.80;9.93;;;7.30;66.70;;;;;;5074633;28;20045;-69
2021/01/12 02:14:05;;;;;;;10.70;8.20;;;7.30;66.60;;;;;;5074780;28;20021;-68
2021/01/12 02:16:33;;;;;;;12.93;9.93;;;7.30;66.70;;;;;;5073177;28;20043;-72
2021/01/12 02:19:00;;;;;;;13.93;10.43;;;7.30;66.70;;;;;;5074702;28;20351;-71
2021/01/12 02:21:28;;;;;;;14.27;9.95;;;7.20;66.70;;;;;;5074557;28;20035;-75
2021/01/12 02:23:55;;;;;;;15.13;10.18;;;7.30;66.90;;;;;;5074657;28;20492;-71
2021/01/12 02:26:22;;;;;;;14.40;10.15;;;7.30;66.80;;;;;;5074394;28;20479;-73
2021/01/12 02:28:48;;;;;;;13.75;10.52;;;7.20;66.60;;;;;;5074311;28;20033;-74
2021/01/12 02:31:16;;;;;;;13.23;9.95;;;7.20;67.00;;;;;;5074330;28;20140;-71
2021/01/12 02:33:42;;;;;;;12.88;9.43;;;7.10;66.90;;;;;;5074249;28;20021;-72
2021/01/12 02:36:13;;;;;;;14.43;9.82;;;7.20;67.10;;;;;;5074327;28;20070;-75
2021/01/12 02:38:40;;;;;;;13.93;9.27;;;7.20;67.00;;;;;;5074382;28;20445;-75
2021/01/12 02:41:18;;;;;;;11.90;9.68;;;7.10;66.90;;;;;;5072514;28;20043;-73
2021/01/12 02:43:47;;;;;;;16.55;10.23;;;7.10;67.10;;;;;;5073737;28;20445;-73
2021/01/12 02:46:15;;;;;;;12.90;9.48;;;7.10;67.00;;;;;;5074070;28;20032;-78
2021/01/12 02:48:41;;;;;;;13.65;9.60;;;7.10;67.20;;;;;;5074141;28;20432;-70
2021/01/12 02:51:07;;;;;;;12.80;9.68;;;7.00;66.80;;;;;;5073929;28;20030;-76
2021/01/12 02:53:32;;;;;;;12.77;8.90;;;6.80;66.80;;;;;;5074051;28;20112;-73
2021/01/12 02:55:58;;;;;;;12.00;9.23;;;6.70;67.30;;;;;;5073900;28;20032;-74
2021/01/12 02:58:24;;;;;;;14.00;9.55;;;6.60;67.80;;;;;;5073718;28;20492;-75
2021/01/12 03:00:50;;;;;;;12.48;9.27;;;6.80;67.90;;;;;;5073774;28;20039;-74
2021/01/12 03:03:15;;;;;;;11.30;9.13;;;6.90;67.70;;;;;;5073500;28;20024;-76
2021/01/12 03:05:41;;;;;;;14.18;10.95;;;6.80;67.40;;;;;;5073609;28;20489;-73
2021/01/12 03:08:07;;;;;;;12.95;8.52;;;6.60;67.20;;;;;;5073566;28;20028;-74
2021/01/12 03:10:34;;;;;;;12.70;8.75;;;6.60;67.40;;;;;;5073629;28;20028;-73
2021/01/12 03:12:59;;;;;;;12.70;9.32;;;6.50;67.90;;;;;;5073497;28;20040;-75
2021/01/12 03:15:26;;;;;;;12.00;8.85;;;6.40;67.90;;;;;;5072213;28;20025;-73
2021/01/12 03:17:52;;;;;;;13.65;8.82;;;6.40;67.70;;;;;;5073533;28;20059;-76
2021/01/12 03:20:17;;;;;;;11.05;7.88;;;6.40;67.80;;;;;;5073501;28;20405;-72
2021/01/12 03:22:43;;;;;;;13.98;8.50;;;6.40;68.20;;;;;;5073648;28;20032;-76
2021/01/12 03:25:09;;;;;;;10.93;8.32;;;6.50;67.90;;;;;;5073511;28;20494;-73
2021/01/12 03:27:35;;;;;;;11.40;7.75;;;6.40;68.00;;;;;;5073320;28;20100;-74
2021/01/12 03:30:03;;;;;;;11.80;7.75;;;6.40;68.00;;;;;;5073462;28;20124;-73
2021/01/12 03:32:29;;;;;;;11.80;8.00;;;6.50;67.70;;;;;;5073063;28;20024;-72
2021/01/12 03:34:54;;;;;;;10.68;7.95;;;6.30;67.70;;;;;;5073720;28;20070;-69
2021/01/12 03:37:20;;;;;;;11.93;7.85;;;6.20;68.10;;;;;;5073682;28;20043;-75
2021/01/12 03:39:46;;;;;;;11.23;8.15;;;6.20;68.10;;;;;;5073193;28;20055;-73
2021/01/12 03:42:11;;;;;;;10.23;7.35;;;6.20;68.30;;;;;;5073612;28;20016;-68
2021/01/12 03:44:37;;;;;;;9.80;7.47;;;6.10;68.10;;;;;;5073382;28;20028;-77
2021/01/12 03:47:03;;;;;;;11.20;7.72;;;6.10;68.40;;;;;;5073164;28;20369;-75
2021/01/12 03:49:28;;;;;;;11.85;8.20;;;6.10;68.10;;;;;;5079995;28;20039;-70
2021/01/12 03:51:54;;;;;;;11.32;8.50;;;6.00;68.50;;;;;;5077426;28;20037;-68
2021/01/12 03:54:20;;;;;;;11.30;8.32;;;6.00;68.90;;;;;;5074013;28;20058;-71
2021/01/12 03:56:45;;;;;;;10.75;7.85;;;6.00;68.70;;;;;;5072128;28;20024;-69
2021/01/12 03:59:11;;;;;;;9.98;7.28;;;5.90;69.30;;;;;;5072743;28;20466;-72
2021/01/12 04:01:43;;;;;;;9.15;6.93;;;5.90;69.30;;;;;;5073143;28;20469;-76
2021/01/12 04:04:10;;;;;;;10.13;7.05;;;5.90;69.50;;;;;;5072862;28;20029;-73
2021/01/12 04:06:36;;;;;;;9.80;6.78;;;6.10;69.20;;;;;;5072928;28;20466;-75
2021/01/12 04:09:03;;;;;;;11.82;7.05;;;6.20;68.80;;;;;;5072721;28;20047;-70
2021/01/12 04:11:30;;;;;;;8.95;6.70;;;6.30;68.70;;;;;;5072898;28;20072;-71
2021/01/12 04:13:56;;;;;;;8.60;6.57;;;6.40;68.60;;;;;;5072821;28;20046;-73
2021/01/12 04:16:25;;;;;;;8.75;6.53;;;6.30;68.20;;;;;;5071576;28;20157;-69
2021/01/12 04:18:51;;;;;;;9.45;6.95;;;6.50;68.70;;;;;;5072967;28;20099;-69
2021/01/12 04:21:16;;;;;;;10.25;6.50;;;6.50;68.10;;;;;;5072417;28;20104;-69
2021/01/12 04:23:42;;;;;;;11.80;7.15;;;6.50;67.80;;;;;;5072779;28;20025;-70
2021/01/12 04:26:08;;;;;;;10.35;7.22;;;6.40;67.80;;;;;;5073119;28;20130;-72
2021/01/12 04:28:34;;;;;;;9.13;7.15;;;6.40;68.30;;;;;;5073546;28;20563;-74
2021/01/12 04:30:59;;;;;;;10.55;7.00;;;6.30;68.40;;;;;;5073351;28;20355;-74
2021/01/12 04:33:25;;;;;;;11.82;7.72;;;6.40;68.40;;;;;;5073263;28;20078;-75
2021/01/12 04:35:51;;;;;;;11.23;7.40;;;6.50;68.30;;;;;;5072805;28;20017;-72
2021/01/12 04:38:17;;;;;;;9.95;7.45;;;6.40;68.00;;;;;;5072716;28;20499;-69
2021/01/12 04:40:43;;;;;;;11.15;7.97;;;6.40;68.40;;;;;;5072453;28;20025;-71
2021/01/12 04:43:11;;;;;;;11.27;7.40;;;6.30;68.30;;;;;;5072422;28;20020;-77
2021/01/12 04:45:37;;;;;;;10.55;7.15;;;6.30;68.60;;;;;;5072553;28;20025;-71
2021/01/12 04:48:03;;;;;;;12.23;7.60;;;6.40;68.90;;;;;;5072457;28;20367;-74
2021/01/12 04:50:29;;;;;;;10.00;6.82;;;6.40;68.60;;;;;;5072265;28;20021;-70
2021/01/12 04:52:55;;;;;;;12.45;8.30;;;6.30;68.20;;;;;;5072664;28;20033;-72
2021/01/12 04:55:22;;;;;;;11.68;8.15;;;6.30;68.70;;;;;;5072975;28;20021;-69
2021/01/12 04:57:49;;;;;;;9.75;6.97;;;6.40;69.00;;;;;;5073355;28;20028;-69
2021/01/12 05:00:18;;;;;;;10.63;7.32;;;6.40;68.50;;;;;;5074824;28;20020;-69
2021/01/12 05:03:03;;;;;;;11.25;7.15;;;6.50;68.70;;;;;;5073540;28;20021;-72
2021/01/12 05:05:38;;;;;;;10.40;8.10;;;6.40;68.40;;;;;;5072374;28;20111;-72
2021/01/12 05:08:09;;;;;;;11.95;7.40;;;6.40;69.00;;;;;;5075171;28;20497;-67
2021/01/12 05:10:39;;;;;;;12.45;7.22;;;6.40;68.60;;;;;;5075877;28;20101;-73
2021/01/12 05:13:06;;;;;;;12.50;7.63;;;6.40;68.40;;;;;;5075886;28;20032;-74
2021/01/12 05:15:32;;;;;;;10.85;7.78;;;6.30;68.40;;;;;;5075782;28;20102;-69
2021/01/12 05:18:00;;;;;;;12.98;8.18;;;6.40;68.70;;;;;;5075585;28;20488;-69
2021/01/12 05:20:26;;;;;;;12.95;8.63;;;6.30;68.70;;;;;;5075655;28;20480;-70
2021/01/12 05:23:06;;;;;;;14.02;8.18;;;6.30;69.20;;;;;;5075557;28;20028;-70
2021/01/12 05:25:36;;;;;;;12.02;8.75;;;6.30;69.10;;;;;;5075772;28;20023;-69
2021/01/12 05:28:04;;;;;;;12.07;8.38;;;6.40;69.10;;;;;;5075446;28;20032;-69
2021/01/12 05:30:29;;;;;;;13.85;8.95;;;6.40;68.80;;;;;;5075279;28;20373;-71
2021/01/12 05:32:57;;;;;;;10.88;7.95;;;6.40;69.30;;;;;;5075405;28;20103;-70
2021/01/12 05:35:26;;;;;;;11.02;7.50;;;6.50;69.10;;;;;;5075239;28;20029;-67
2021/01/12 05:38:05;;;;;;;11.52;7.78;;;6.40;68.70;;;;;;5075585;28;20388;-72
2021/01/12 05:40:41;;;;;;;11.35;8.05;;;6.40;69.40;;;;;;5075432;28;20021;-71
2021/01/12 05:43:13;;;;;;;11.88;8.32;;;6.40;69.30;;;;;;5074108;28;20058;-75
2021/01/12 05:45:43;;;;;;;11.38;8.35;;;6.40;69.50;;;;;;5075303;28;20104;-68
2021/01/12 05:48:10;;;;;;;12.65;8.07;;;6.40;69.40;;;;;;5075372;28;20040;-70
2021/01/12 05:50:37;;;;;;;12.40;8.18;;;6.50;69.20;;;;;;5074846;28;20020;-72
2021/01/12 05:53:04;;;;;;;10.73;8.43;;;6.50;69.20;;;;;;5073562;28;20037;-66
2021/01/12 05:55:44;;;;;;;11.75;8.40;;;6.50;69.00;;;;;;5075035;28;20040;-68
2021/01/12 05:58:18;;;;;;;11.65;8.23;;;6.40;69.80;;;;;;5074756;28;20025;-66
2021/01/12 06:00:47;;;;;;;13.77;8.32;;;6.20;69.70;;;;;;5074718;28;20111;-67
2021/01/12 06:03:17;;;;;;;12.43;8.75;;;6.10;69.60;;;;;;5074986;28;20033;-66
2021/01/12 06:05:46;;;;;;;11.27;8.65;;;6.00;70.30;;;;;;5074566;28;20040;-72
2021/01/12 06:08:16;;;;;;;11.70;8.73;;;6.00;70.90;;;;;;5074610;28;20036;-71
2021/01/12 06:10:44;;;;;;;12.13;8.52;;;6.20;70.70;;;;;;5073063;28;20025;-72
2021/01/12 06:13:14;;;;;;;11.23;7.78;;;6.30;70.40;;;;;;5074973;28;20055;-67
2021/01/12 06:15:41;;;;;;;12.00;8.40;;;6.30;70.20;;;;;;5074751;28;20040;-71
2021/01/12 06:18:12;;;;;;;11.20;8.10;;;6.40;70.10;;;;;;5073672;28;20028;-71
2021/01/12 06:20:56;;;;;;;12.27;8.68;;;6.40;69.90;;;;;;5074486;28;20013;-71
2021/01/12 06:23:48;;;;;;;13.68;9.07;;;6.40;70.40;;;;;;5073153;28;20028;-68
2021/01/12 06:26:15;;;;;;;11.35;8.55;;;6.40;70.10;;;;;;5073826;28;20167;-70
2021/01/12 06:28:44;;;;;;;14.10;8.48;;;6.40;69.80;;;;;;5074215;28;20357;-70
2021/01/12 06:31:10;;;;;;;12.90;8.60;;;6.30;70.10;;;;;;5077790;28;20047;-73
2021/01/12 06:33:36;;;;;;;12.93;9.27;;;6.20;70.40;;;;;;5075279;28;20029;-73
2021/01/12 06:36:03;;;;;;;13.20;9.25;;;6.20;70.60;;;;;;5075643;28;20473;-74
2021/01/12 06:38:34;;;;;;;13.85;9.18;;;6.20;71.10;;;;;;5074441;28;20373;-73
2021/01/12 06:41:05;;;;;;;12.77;8.77;;;6.20;70.80;;;;;;5074235;28;20063;-76
2021/01/12 06:43:31;;;;;;;13.98;8.85;;;6.30;71.00;;;;;;5087620;28;20084;-77
2021/01/12 06:45:57;;;;;;;13.25;8.82;;;6.30;70.60;;;;;;5090784;28;20004;-76
2021/01/12 06:48:23;;;;;;;11.10;8.18;;;6.40;70.30;;;;;;5079489;28;20066;-74
2021/01/12 06:50:50;;;;;;;10.43;7.85;;;6.40;70.00;;;;;;5078652;28;20035;-73
2021/01/12 06:53:16;;;;;;;11.30;7.97;;;6.40;70.70;;;;;;5075635;28;20029;-71
2021/01/12 06:55:42;;;;;;;13.90;8.75;;;6.50;70.20;;;;;;5074220;28;20075;-75
2021/01/12 06:58:11;;;;;;;10.30;7.65;;;6.40;69.70;;;;;;5074968;28;20078;-74
2021/01/12 07:00:38;;;;;;;10.63;7.43;;;6.40;70.20;;;;;;5074441;28;20028;-77
2021/01/12 07:03:05;;;;;;;11.93;8.02;;;6.40;70.00;;;;;;5073723;28;20036;-75
2021/01/12 07:05:42;;;;;;;10.95;7.18;;;6.50;70.00;;;;;;5074039;28;20505;-76
2021/01/12 07:08:09;;;;;;;11.10;7.28;;;6.50;70.20;;;;;;5073913;28;20024;-76
2021/01/12 07:10:43;;;;;;;9.93;7.18;;;6.60;69.70;;;;;;5074035;28;20036;-77
2021/01/12 07:13:09;;;;;;;10.23;7.15;;;6.60;69.80;;;;;;5073908;28;20066;-68
2021/01/12 07:15:44;;;;;;;10.77;7.35;;;6.60;69.70;;;;;;5073803;28;20028;-75
2021/01/12 07:18:10;;;;;;;10.55;7.47;;;6.60;69.30;;;;;;5073422;28;20438;-75
2021/01/12 07:20:38;;;;;;;10.82;6.95;;;6.60;69.70;;;;;;5073808;28;20347;-78
2021/01/12 07:23:05;;;;;;;11.32;6.95;;;6.60;69.40;;;;;;5072391;28;20516;-76
2021/01/12 07:25:38;;;;;;;15.32;8.20;;;6.60;69.50;;;;;;5073564;28;20066;-77
2021/01/12 07:28:09;;;;;;;11.02;6.65;;;6.70;69.60;;;;;;5073533;28;20350;-77
2021/01/12 07:30:39;;;;;;;10.55;7.15;;;6.60;70.00;;;;;;5073488;28;20042;-72
2021/01/12 07:33:06;;;;;;;11.98;7.10;;;6.60;69.30;;;;;;5073046;28;20461;-78
2021/01/12 07:35:33;;;;;;;8.95;6.65;;;6.60;69.30;;;;;;5073000;28;20064;-75
2021/01/12 07:37:59;;;;;;;11.90;7.30;;;6.50;69.40;;;;;;5073501;28;20421;-76
2021/01/12 07:40:29;;;;;;;13.73;6.85;;;6.50;69.30;;;;;;5073261;28;20033;-75
2021/01/12 07:42:56;;;;;;;10.95;7.18;;;6.50;70.00;;;;;;5073455;28;20016;-79
2021/01/12 07:45:24;;;;;;;11.55;7.60;;;6.40;69.00;;;;;;5073279;28;20162;-78
2021/01/12 07:47:54;;;;;;;10.60;7.35;;;6.40;69.50;;;;;;5073299;28;20036;-78
2021/01/12 07:50:21;;;;;;;10.27;7.28;;;6.40;69.30;;;;;;5073107;28;20381;-70
2021/01/12 07:52:47;;;;;;;12.50;7.45;;;6.50;69.40;;;;;;5072963;28;20111;-76
2021/01/12 07:55:14;;;;;;;11.50;7.03;;;6.50;69.10;;;;;;5072800;28;20032;-79
2021/01/12 07:57:40;;;;;;;10.77;6.90;;;6.50;69.10;;;;;;5073080;28;20116;-78
2021/01/12 08:00:08;;;;;;;10.70;7.50;;;6.60;69.30;;;;;;5072667;28;20031;-80
2021/01/12 08:02:35;;;;;;;10.20;7.43;;;6.60;68.70;;;;;;5073203;28;20021;-78
2021/01/12 08:05:03;;;;;;;14.20;7.40;;;6.60;68.90;;;;;;5072290;28;20024;-74
2021/01/12 08:07:29;;;;;;;10.88;7.20;;;6.80;68.90;;;;;;5072416;28;20044;-72
2021/01/12 08:09:55;;;;;;;9.43;6.75;;;6.90;68.50;;;;;;5072509;28;20040;-75
2021/01/12 08:12:22;;;;;;;11.90;7.18;;;6.80;68.10;;;;;;5072381;28;20040;-76
2021/01/12 08:14:49;;;;;;;11.13;6.93;;;6.70;68.20;;;;;;5072461;28;20028;-78
2021/01/12 08:17:28;;;;;;;13.55;8.73;;;6.70;68.20;;;;;;5072412;28;20400;-77
2021/01/12 08:19:54;;;;;;;10.07;6.22;;;6.80;68.80;;;;;;5072147;28;20052;-74
2021/01/12 08:22:21;;;;;;;10.82;6.85;;;6.80;67.90;;;;;;5072355;28;20059;-70
2021/01/12 08:24:47;;;;;;;9.88;6.65;;;6.80;67.60;;;;;;5072404;28;20469;-72
2021/01/12 08:27:18;;;;;;;11.98;6.80;;;6.90;67.70;;;;;;5072440;28;20020;-75
2021/01/12 08:29:43;;;;;;;11.65;7.18;;;7.00;67.10;;;;;;5072299;28;20102;-70
2021/01/12 08:32:11;;;;;;;16.65;7.38;;;7.00;67.20;;;;;;5071945;28;20029;-74
2021/01/12 08:34:51;;;;;;;11.55;6.88;;;7.00;66.90;;;;;;5072479;28;20466;-74
2021/01/12 08:37:19;;;;;;;12.13;7.80;;;7.10;67.30;;;;;;5072192;28;20025;-68
2021/01/12 08:39:46;;;;;;;13.82;7.60;;;7.10;66.90;;;;;;5070254;28;20033;-73
2021/01/12 08:42:14;;;;;;;10.85;7.28;;;7.10;66.80;;;;;;5073234;28;20172;-71
2021/01/12 08:44:42;;;;;;;12.20;6.78;;;7.10;66.60;;;;;;5075459;28;20024;-72
2021/01/12 08:47:08;;;;;;;11.02;6.85;;;7.10;66.60;;;;;;5074252;28;20099;-71
2021/01/12 08:49:34;;;;;;;11.50;7.20;;;7.10;66.60;;;;;;5075540;28;20051;-71
2021/01/12 08:52:02;;;;;;;10.45;7.25;;;7.10;66.40;;;;;;5075637;28;20059;-69
2021/01/12 08:54:29;;;;;;;10.07;7.30;;;7.20;66.40;;;;;;5075548;28;20030;-68
2021/01/12 08:56:59;;;;;;;10.38;7.38;;;7.30;66.10;;;;;;5075614;28;20039;-69
2021/01/12 08:59:34;;;;;;;9.13;6.55;;;7.30;66.00;;;;;;5075212;28;20029;-68
2021/01/12 09:02:01;;;;;;;11.30;6.65;;;7.30;65.80;;;;;;5075170;28;20028;-68
2021/01/12 09:04:30;;;;;;;10.93;7.22;;;7.20;65.50;;;;;;5075342;28;20028;-72
2021/01/12 09:07:04;;;;;;;11.18;7.70;;;7.20;65.50;;;;;;5074748;28;20032;-70
2021/01/12 09:09:30;;;;;;;10.48;6.60;;;7.20;65.70;;;;;;5074938;28;20025;-68
2021/01/12 09:11:59;;;;;;;9.70;6.82;;;7.20;65.70;;;;;;5073532;28;20532;-69
2021/01/12 09:14:26;;;;;;;10.48;7.10;;;7.20;65.80;;;;;;5075072;28;20078;-67
2021/01/12 09:17:02;;;;;;;9.02;6.38;;;7.20;65.90;;;;;;5074819;28;20082;-68
2021/01/12 09:19:39;;;;;;;11.27;6.47;;;7.10;65.80;;;;;;5075249;28;20032;-67
2021/01/12 09:22:10;;;;;;;16.23;7.15;;;7.20;65.70;;;;;;5074882;28;20024;-70
2021/01/12 09:24:39;;;;;;;12.23;7.05;;;7.30;65.70;;;;;;5073466;28;20033;-67
2021/01/12 09:27:05;;;;;;;14.55;7.30;;;7.30;65.40;;;;;;5074672;28;20086;-67
2021/01/12 09:29:38;;;;;;;21.05;7.88;;;7.30;65.50;;;;;;5074782;28;20037;-68
2021/01/12 09:32:06;;;;;;;11.55;7.90;;;7.30;65.80;;;;;;5074857;28;20103;-69
2021/01/12 09:34:32;;;;;;;16.55;7.78;;;7.30;65.80;;;;;;5073410;28;20031;-71
2021/01/12 09:36:58;;;;;;;11.48;7.93;;;7.50;66.50;;;;;;5077380;28;20303;-67
2021/01/12 09:39:27;;;;;;;15.68;8.57;;;7.60;65.70;;;;;;5078892;28;20050;-67
2021/01/12 09:41:53;;;;;;;19.35;8.32;;;7.60;65.30;;;;;;5074964;28;20175;-70
2021/01/12 09:44:18;;;;;;;12.63;8.55;;;7.70;65.50;;;;;;5074684;28;20054;-72
2021/01/12 09:46:44;;;;;;;15.55;8.88;;;7.80;65.40;;;;;;5074270;28;20024;-68
2021/01/12 09:49:10;;;;;;;13.70;7.90;;;7.90;65.40;;;;;;5074449;28;20105;-69
2021/01/12 09:51:35;;;;;;;12.82;8.75;;;8.00;65.20;;;;;;5074737;28;20107;-66
2021/01/12 09:54:01;;;;;;;16.63;9.10;;;8.00;65.20;;;;;;5073651;28;20033;-71
2021/01/12 09:56:27;;;;;;;12.73;9.45;;;8.00;65.10;;;;;;5073226;28;20025;-68
2021/01/12 09:58:53;;;;;;;12.00;8.30;;;8.20;65.30;;;;;;5074400;28;20040;-67
2021/01/12 10:01:19;;;;;;;11.70;8.80;;;8.20;64.80;;;;;;5074571;28;20056;-68
2021/01/12 10:03:47;;;;;;;14.52;9.40;;;8.20;65.20;;;;;;5073281;28;20155;-67
2021/01/12 10:06:22;;;;;;;13.80;8.98;;;8.30;64.90;;;;;;5074495;28;20060;-69
2021/01/12 10:08:48;;;;;;;12.88;8.95;;;8.30;65.00;;;;;;5074119;28;20046;-70
2021/01/12 10:11:15;;;;;;;13.68;9.35;;;8.30;65.00;;;;;;5074649;28;20040;-70
2021/01/12 10:13:45;;;;;;;24.48;10.88;;;8.30;64.80;;;;;;5074104;28;20048;-68
2021/01/12 10:16:18;;;;;;;18.48;11.18;;;8.20;65.00;;;;;;5074014;28;20020;-70
2021/01/12 10:18:44;;;;;;;16.10;10.45;;;8.30;65.00;;;;;;5073944;28;20036;-70
2021/01/12 10:21:10;;;;;;;13.80;10.13;;;8.30;65.20;;;;;;5074145;28;20461;-72
2021/01/12 10:23:35;;;;;;;15.82;10.60;;;8.30;65.00;;;;;;5072950;28;20046;-69
2021/01/12 10:26:01;;;;;;;16.08;10.10;;;8.40;65.20;;;;;;5074293;28;20029;-68
2021/01/12 10:28:26;;;;;;;16.70;10.20;;;8.40;64.80;;;;;;5074780;28;20028;-68
2021/01/12 10:30:52;;;;;;;16.77;9.00;;;8.50;65.00;;;;;;5074263;28;20056;-70
2021/01/12 10:33:18;;;;;;;13.27;9.88;;;8.60;64.90;;;;;;5074795;28;20020;-69
2021/01/12 10:35:43;;;;;;;15.63;10.00;;;8.70;64.40;;;;;;5074707;28;20023;-69
2021/01/12 10:38:11;;;;;;;13.57;9.77;;;8.80;64.40;;;;;;5075639;28;20033;-69
2021/01/12 10:40:36;;;;;;;15.63;10.27;;;8.80;64.30;;;;;;5074327;28;20024;-71
2021/01/12 10:43:02;;;;;;;17.17;10.23;;;8.90;64.20;;;;;;5073852;28;20028;-71
2021/01/12 10:45:29;;;;;;;14.98;10.52;;;8.90;64.10;;;;;;5073909;28;20020;-72
2021/01/12 10:47:56;;;;;;;15.40;10.80;;;9.00;64.10;;;;;;5073666;28;20107;-68
2021/01/12 10:50:22;;;;;;;11.10;8.75;;;9.00;63.70;;;;;;5073729;28;20027;-75
2021/01/12 10:52:48;;;;;;;12.88;9.65;;;9.00;63.70;;;;;;5076016;28;20052;-76
2021/01/12 10:55:14;;;;;;;13.27;9.60;;;9.10;63.80;;;;;;5081385;28;20496;-69
2021/01/12 10:57:44;;;;;;;17.67;10.23;;;9.30;63.50;;;;;;5078764;28;20125;-70
2021/01/12 11:00:10;;;;;;;12.25;9.23;;;9.40;63.60;;;;;;5081183;28;20024;-66
2021/01/12 11:02:36;;;;;;;12.63;9.27;;;9.50;63.20;;;;;;5078255;28;20028;-70
2021/01/12 11:05:03;;;;;;;13.88;9.63;;;9.50;62.60;;;;;;5076331;28;20024;-73
2021/01/12 11:07:31;;;;;;;13.30;8.57;;;9.50;62.80;;;;;;5073569;28;20108;-75
2021/01/12 11:09:57;;;;;;;12.40;8.80;;;9.70;62.90;;;;;;5071862;28;20041;-70
2021/01/12 11:12:23;;;;;;;18.83;9.60;;;9.70;62.50;;;;;;5073495;28;20052;-76
2021/01/12 11:14:49;;;;;;;14.73;9.00;;;9.80;62.40;;;;;;5073464;28;20186;-70
2021/01/12 11:17:14;;;;;;;20.83;9.27;;;9.90;62.40;;;;;;5073373;28;20098;-74
2021/01/12 11:19:41;;;;;;;15.10;9.25;;;10.00;61.40;;;;;;5072986;28;20029;-75
2021/01/12 11:22:07;;;;;;;15.57;9.25;;;10.10;60.90;;;;;;5073184;28;20434;-73
2021/01/12 11:24:33;;;;;;;13.73;9.07;;;10.20;60.70;;;;;;5073072;28;20035;-76
2021/01/12 11:26:58;;;;;;;16.08;8.80;;;10.30;60.30;;;;;;5073035;28;20035;-76
2021/01/12 11:29:24;;;;;;;15.10;9.15;;;10.40;60.20;;;;;;5073013;28;20040;-75
2021/01/12 11:31:50;;;;;;;11.93;8.23;;;10.50;60.60;;;;;;5072781;28;20028;-76
2021/01/12 11:34:16;;;;;;;10.18;7.30;;;10.50;59.80;;;;;;5072700;28;20039;-74
2021/01/12 11:36:44;;;;;;;13.73;8.25;;;10.60;59.70;;;;;;5072892;28;20031;-73
2021/01/12 11:39:14;;;;;;;12.57;7.88;;;10.60;59.40;;;;;;5072780;28;20035;-78
2021/01/12 11:41:55;;;;;;;11.20;7.68;;;10.60;58.90;;;;;;5073241;28;20016;-77
2021/01/12 11:44:24;;;;;;;12.82;8.07;;;10.70;59.20;;;;;;5073087;28;20028;-75
2021/01/12 11:46:51;;;;;;;11.18;7.75;;;10.80;59.00;;;;;;5072966;28;20020;-75
2021/01/12 11:49:16;;;;;;;9.98;7.38;;;10.80;59.20;;;;;;5072374;28;20051;-77
2021/01/12 11:51:47;;;;;;;9.75;6.68;;;10.90;58.40;;;;;;5073035;28;20017;-76
2021/01/12 11:54:14;;;;;;;11.68;7.13;;;10.90;58.10;;;;;;5073147;28;20036;-76
2021/01/12 11:56:40;;;;;;;11.75;7.05;;;11.10;58.10;;;;;;5073432;28;20105;-72
2021/01/12 11:59:06;;;;;;;12.65;8.25;;;11.10;57.80;;;;;;5072285;28;20134;-70
2021/01/12 12:01:48;;;;;;;8.80;6.50;;;11.20;58.20;;;;;;5072359;28;20028;-75
2021/01/12 12:04:14;;;;;;;10.73;7.15;;;11.20;57.50;;;;;;5072204;28;20100;-74
2021/01/12 12:06:40;;;;;;;11.95;7.57;;;11.20;57.10;;;;;;5072259;28;20426;-77
2021/01/12 12:09:07;;;;;;;12.18;7.40;;;11.30;57.40;;;;;;5070573;28;20124;-74
2021/01/12 12:11:37;;;;;;;10.55;7.15;;;11.20;56.60;;;;;;5071891;28;20048;-76
2021/01/12 12:14:04;;;;;;;9.43;6.30;;;11.30;57.10;;;;;;5071962;28;20111;-76
2021/01/12 12:16:29;;;;;;;10.68;6.65;;;11.30;56.50;;;;;;5072697;28;20389;-76
2021/01/12 12:18:55;;;;;;;8.65;6.00;;;11.30;56.40;;;;;;5076290;28;20035;-76
2021/01/12 12:21:21;;;;;;;8.52;5.72;;;11.30;56.50;;;;;;5076085;28;20438;-78
2021/01/12 12:23:47;;;;;;;10.25;6.30;;;11.30;56.30;;;;;;5076544;28;20363;-71
2021/01/12 12:26:14;;;;;;;10.52;6.88;;;11.30;55.70;;;;;;5076403;28;20028;-73
2021/01/12 12:28:44;;;;;;;9.73;6.80;;;11.40;56.00;;;;;;5077468;28;20033;-74
2021/01/12 12:31:09;;;;;;;8.20;5.63;;;11.40;55.80;;;;;;5084956;28;20031;-67
2021/01/12 12:33:35;;;;;;;9.60;6.05;;;11.50;55.40;;;;;;5088210;28;20028;-70
2021/01/12 12:36:06;;;;;;;8.80;5.38;;;11.50;55.50;;;;;;5076065;28;20027;-68
2021/01/12 12:38:35;;;;;;;7.95;6.00;;;11.60;55.70;;;;;;5075980;28;20017;-71
2021/01/12 12:41:06;;;;;;;11.18;6.35;;;11.70;55.40;;;;;;5075853;28;20063;-77
2021/01/12 12:43:31;;;;;;;7.93;5.85;;;11.80;55.40;;;;;;5075637;28;20024;-76
2021/01/12 12:45:57;;;;;;;9.27;6.20;;;11.80;55.10;;;;;;5075731;28;20025;-74
2021/01/12 12:48:23;;;;;;;11.15;6.20;;;11.80;55.30;;;;;;5074186;28;20094;-74